Time;durP1;ratioP1;P1;durP2;ratioP2;P2;SDS_P1;SDS_P2;PMS_P1;PMS_P2;Temp;Humidity;BMP_temperature;BMP_pressure;BME280_temperature;BME280_humidity;BME280_pressure;Samples;Min_cycle;Max_cycle;Signal;HPM_P1;HPM_P2
2023/10/05 03:01:15;;;;;;;2.60;1.90;;;21.80;47.90;;;;;;5687162;23;45808;-83
2023/10/05 03:03:43;;;;;;;2.95;1.80;;;21.80;47.90;;;;;;4847065;29;45131;-85
2023/10/05 03:06:10;;;;;;;3.20;2.10;;;21.80;47.90;;;;;;4827929;29;45478;-84
2023/10/05 03:08:36;;;;;;;3.07;1.90;;;21.80;47.90;;;;;;4834990;29;45270;-85
2023/10/05 03:11:03;;;;;;;2.90;1.90;;;21.80;47.90;;;;;;4862307;29;45931;-84
2023/10/05 03:13:29;;;;;;;2.30;1.80;;;21.70;47.80;;;;;;4858352;29;45480;-85
2023/10/05 03:15:55;;;;;;;3.33;2.00;;;21.70;47.80;;;;;;4826949;29;45392;-85
2023/10/05 03:18:24;;;;;;;2.40;1.80;;;21.80;47.90;;;;;;4867762;29;45099;-84
2023/10/05 03:20:51;;;;;;;2.70;1.80;;;21.80;47.90;;;;;;4877961;29;45638;-85
2023/10/05 03:23:17;;;;;;;2.83;1.90;;;21.80;47.90;;;;;;4870597;29;45654;-84
2023/10/05 03:25:46;;;;;;;2.60;1.80;;;21.80;47.80;;;;;;4849146;29;45196;-86
2023/10/05 03:28:12;;;;;;;2.35;1.65;;;21.80;47.80;;;;;;4867804;29;44955;-86
2023/10/05 03:30:38;;;;;;;3.60;2.10;;;21.80;47.80;;;;;;4879948;28;45573;-86
2023/10/05 03:33:05;;;;;;;3.70;2.08;;;21.70;47.70;;;;;;4856643;29;45209;-87
2023/10/05 03:35:33;;;;;;;2.70;2.00;;;21.70;47.70;;;;;;4860526;29;45101;-87
2023/10/05 03:38:00;;;;;;;2.78;1.98;;;21.70;47.70;;;;;;4877509;29;45076;-85
2023/10/05 03:40:35;;;;;;;2.50;1.80;;;21.70;47.70;;;;;;4847487;29;46661;-88
2023/10/05 03:43:01;;;;;;;2.70;1.90;;;21.70;47.70;;;;;;4846750;29;45194;-86
2023/10/05 03:45:31;;;;;;;2.67;1.80;;;21.70;47.70;;;;;;4847123;29;45861;-86
2023/10/05 03:47:57;;;;;;;2.33;1.60;;;21.70;47.70;;;;;;4867504;29;45599;-87
2023/10/05 03:50:23;;;;;;;2.92;1.90;;;21.70;47.60;;;;;;4862849;29;45913;-86
2023/10/05 03:52:49;;;;;;;2.08;1.50;;;21.70;47.60;;;;;;4869064;29;46276;-86
2023/10/05 03:55:19;;;;;;;2.67;1.92;;;21.70;47.70;;;;;;4877956;29;44650;-86
2023/10/05 03:57:45;;;;;;;2.57;1.87;;;21.70;47.60;;;;;;4852522;29;44969;-88
2023/10/05 04:02:56;;;;;;;2.17;1.70;;;21.70;47.60;;;;;;4835245;29;45361;-87
2023/10/05 04:05:23;;;;;;;2.28;1.73;;;21.70;47.50;;;;;;4852852;29;45647;-86
2023/10/05 04:07:52;;;;;;;3.30;1.70;;;21.70;47.50;;;;;;4846459;29;45258;-86
2023/10/05 04:10:23;;;;;;;2.90;1.80;;;21.70;47.60;;;;;;4854139;29;45274;-90
2023/10/05 04:12:49;;;;;;;2.25;1.75;;;21.70;47.60;;;;;;4851287;29;45150;-86
2023/10/05 04:15:18;;;;;;;2.70;1.50;;;21.70;47.50;;;;;;4848370;29;45625;-86
2023/10/05 04:17:48;;;;;;;1.90;1.55;;;21.70;47.50;;;;;;4862425;29;44819;-89
2023/10/05 04:20:28;;;;;;;2.60;1.80;;;21.70;47.50;;;;;;4846839;29;46127;-86
2023/10/05 04:22:55;;;;;;;3.50;1.80;;;21.70;47.50;;;;;;4868252;29;45193;-87
2023/10/05 04:25:21;;;;;;;3.63;2.10;;;21.60;47.50;;;;;;4867888;29;44675;-89
2023/10/05 04:27:47;;;;;;;2.90;1.70;;;21.70;47.50;;;;;;4848593;29;45571;-87
2023/10/05 04:30:35;;;;;;;2.40;1.77;;;21.70;47.50;;;;;;4846376;29;45936;-88
2023/10/05 04:33:03;;;;;;;2.70;1.80;;;21.70;47.50;;;;;;4850334;29;45029;-86
2023/10/05 04:35:32;;;;;;;2.90;1.85;;;21.70;47.50;;;;;;4863473;29;45292;-86
2023/10/05 04:38:00;;;;;;;2.53;1.67;;;21.70;47.50;;;;;;4849569;29;45514;-86
2023/10/05 04:40:26;;;;;;;2.75;1.80;;;21.70;47.50;;;;;;4849169;29;45322;-88
2023/10/05 04:42:53;;;;;;;3.13;2.00;;;21.70;47.50;;;;;;4869350;29;45290;-86
2023/10/05 04:45:23;;;;;;;2.28;1.70;;;21.70;47.50;;;;;;4844224;29;45349;-89
2023/10/05 04:47:48;;;;;;;2.90;1.70;;;21.70;47.50;;;;;;4826566;29;45326;-86
2023/10/05 04:50:15;;;;;;;3.10;1.80;;;21.70;47.50;;;;;;4868738;29;45784;-86
2023/10/05 04:52:45;;;;;;;3.28;1.70;;;21.70;47.40;;;;;;4852745;29;44997;-86
2023/10/05 04:55:18;;;;;;;3.00;1.90;;;21.70;47.40;;;;;;4845474;29;45724;-86
2023/10/05 04:57:54;;;;;;;3.28;2.00;;;21.70;47.40;;;;;;4848645;29;45436;-85
2023/10/05 05:03:05;;;;;;;2.75;1.90;;;21.70;47.40;;;;;;4874079;28;46017;-88
2023/10/05 05:05:40;;;;;;;3.38;1.70;;;21.60;47.40;;;;;;4881942;28;45516;-86
2023/10/05 05:08:05;;;;;;;3.17;2.10;;;21.60;47.40;;;;;;4853484;29;44840;-86
2023/10/05 05:10:31;;;;;;;2.90;1.90;;;21.60;47.40;;;;;;4861920;29;45617;-87
2023/10/05 05:12:57;;;;;;;2.73;2.10;;;21.60;48.00;;;;;;4835463;29;45303;-88
2023/10/05 05:15:23;;;;;;;2.03;1.73;;;21.60;47.40;;;;;;4874267;29;45079;-86
2023/10/05 05:17:49;;;;;;;2.78;1.60;;;21.60;47.40;;;;;;4867516;29;45822;-87
2023/10/05 05:20:15;;;;;;;3.83;1.90;;;21.60;47.40;;;;;;4864848;29;47369;-86
2023/10/05 05:22:40;;;;;;;2.83;2.00;;;21.60;47.40;;;;;;4856835;29;45077;-86
2023/10/05 05:25:09;;;;;;;3.03;1.85;;;21.60;47.40;;;;;;4895577;28;45639;-88
2023/10/05 05:27:34;;;;;;;2.10;1.60;;;21.60;47.40;;;;;;4865176;29;44717;-86
2023/10/05 05:30:00;;;;;;;2.67;1.95;;;21.60;47.40;;;;;;4862273;29;47205;-86
2023/10/05 05:32:26;;;;;;;2.58;1.80;;;21.60;47.30;;;;;;4866255;29;45376;-87
2023/10/05 05:34:52;;;;;;;2.70;1.70;;;21.60;47.30;;;;;;4838561;29;45036;-87
2023/10/05 05:37:28;;;;;;;2.22;1.50;;;21.60;47.30;;;;;;4890988;28;46560;-86
2023/10/05 05:40:04;;;;;;;3.60;2.20;;;21.60;47.30;;;;;;4869944;29;46059;-86
2023/10/05 05:42:32;;;;;;;3.00;2.08;;;21.60;47.30;;;;;;4871548;29;45079;-86
2023/10/05 05:44:58;;;;;;;2.88;1.85;;;21.60;47.30;;;;;;4888600;29;45685;-87
2023/10/05 05:47:29;;;;;;;2.57;2.00;;;21.60;47.30;;;;;;4847569;29;45346;-87
2023/10/05 05:50:00;;;;;;;2.85;1.90;;;21.50;47.20;;;;;;4871481;29;45841;-88
2023/10/05 05:52:27;;;;;;;2.13;1.52;;;21.60;47.30;;;;;;4867724;29;44687;-89
2023/10/05 05:54:53;;;;;;;2.67;1.90;;;21.60;47.30;;;;;;4887130;29;45282;-85
2023/10/05 05:57:19;;;;;;;2.67;1.90;;;21.50;47.20;;;;;;4886889;29;45084;-85
2023/10/05 05:59:46;;;;;;;3.10;1.80;;;21.50;47.20;;;;;;4841901;29;46245;-85
2023/10/05 06:02:12;;;;;;;2.72;2.00;;;21.50;47.20;;;;;;4893234;28;45456;-86
2023/10/05 06:04:40;;;;;;;2.90;1.90;;;21.50;47.30;;;;;;4856626;29;45302;-86
2023/10/05 06:07:13;;;;;;;2.67;1.70;;;21.60;47.30;;;;;;4875210;29;44923;-86
2023/10/05 06:09:57;;;;;;;2.80;1.80;;;21.50;47.20;;;;;;4870801;29;46413;-85
2023/10/05 06:12:23;;;;;;;2.97;1.85;;;21.50;47.20;;;;;;4884827;28;45762;-86
2023/10/05 06:14:48;;;;;;;2.65;1.75;;;21.50;47.20;;;;;;4872644;29;45772;-85
2023/10/05 06:17:14;;;;;;;2.88;1.90;;;21.50;47.20;;;;;;4864614;29;44862;-85
2023/10/05 06:19:40;;;;;;;3.28;2.00;;;21.50;47.20;;;;;;4865560;29;46382;-88
2023/10/05 06:22:08;;;;;;;2.80;1.80;;;21.50;47.20;;;;;;4877303;29;45134;-85
2023/10/05 06:24:35;;;;;;;3.03;1.92;;;21.50;47.20;;;;;;4867716;29;45289;-85
2023/10/05 06:27:01;;;;;;;3.38;2.00;;;21.50;47.20;;;;;;4855794;29;45549;-85
2023/10/05 06:29:28;;;;;;;2.70;1.95;;;21.50;47.20;;;;;;4858549;29;47178;-85
2023/10/05 06:31:53;;;;;;;2.70;1.83;;;21.50;47.20;;;;;;4862629;29;45209;-85
2023/10/05 06:34:19;;;;;;;2.83;1.77;;;21.50;47.20;;;;;;4855429;29;45511;-85
2023/10/05 06:36:45;;;;;;;2.80;1.83;;;21.50;47.20;;;;;;4863747;29;45261;-86
2023/10/05 06:39:14;;;;;;;2.35;1.70;;;21.50;47.20;;;;;;4860658;29;46501;-86
2023/10/05 06:41:43;;;;;;;2.35;1.60;;;21.50;47.30;;;;;;4880826;29;45309;-86
2023/10/05 06:44:10;;;;;;;3.13;1.73;;;21.50;47.30;;;;;;4871391;29;45309;-85
2023/10/05 06:46:40;;;;;;;3.00;2.05;;;21.50;47.20;;;;;;4848632;29;45169;-85
2023/10/05 06:49:06;;;;;;;3.03;1.90;;;21.50;47.30;;;;;;4874337;29;46285;-85
2023/10/05 06:51:35;;;;;;;3.00;1.97;;;21.50;47.20;;;;;;4840759;29;45048;-85
2023/10/05 06:54:00;;;;;;;3.17;1.70;;;21.50;47.20;;;;;;4895204;29;44819;-85
2023/10/05 06:56:29;;;;;;;2.97;1.80;;;21.50;47.20;;;;;;4878379;29;45457;-85
2023/10/05 06:58:54;;;;;;;3.83;1.80;;;21.50;47.20;;;;;;4843268;29;45449;-85
2023/10/05 07:01:20;;;;;;;2.17;1.80;;;21.50;47.20;;;;;;4861200;29;45383;-85
2023/10/05 07:03:53;;;;;;;3.20;1.90;;;21.50;47.30;;;;;;4843821;29;45244;-86
2023/10/05 07:06:25;;;;;;;3.22;2.05;;;21.50;47.20;;;;;;4857903;29;45726;-85
2023/10/05 07:08:52;;;;;;;2.88;1.90;;;21.50;47.30;;;;;;4858248;29;45985;-85
2023/10/05 07:11:18;;;;;;;3.42;1.83;;;21.50;47.50;;;;;;4833123;29;45196;-85
2023/10/05 07:13:46;;;;;;;2.35;1.67;;;21.50;47.30;;;;;;4843081;29;45711;-86
2023/10/05 07:16:12;;;;;;;2.65;1.80;;;21.50;47.30;;;;;;4855934;29;45281;-85
2023/10/05 07:18:39;;;;;;;4.10;1.77;;;21.50;47.30;;;;;;4871984;29;45425;-86
2023/10/05 07:21:08;;;;;;;2.40;1.73;;;21.50;47.30;;;;;;4869128;29;45741;-86
2023/10/05 07:23:36;;;;;;;2.60;1.63;;;21.50;47.30;;;;;;4835661;29;45537;-85
2023/10/05 07:26:03;;;;;;;2.25;1.67;;;21.50;47.30;;;;;;4858651;29;45174;-85
2023/10/05 07:28:29;;;;;;;2.80;2.00;;;21.50;47.30;;;;;;4840888;29;45702;-87
2023/10/05 07:30:59;;;;;;;3.33;1.70;;;21.50;47.30;;;;;;4856036;29;45156;-86
2023/10/05 07:33:25;;;;;;;2.60;1.80;;;21.50;47.30;;;;;;4835809;29;45297;-86
2023/10/05 07:35:53;;;;;;;2.60;1.50;;;21.50;47.30;;;;;;4857286;29;45651;-85
2023/10/05 07:38:19;;;;;;;2.65;1.83;;;21.50;47.30;;;;;;4838367;29;46894;-85
2023/10/05 07:40:45;;;;;;;3.60;2.00;;;21.50;47.30;;;;;;4869676;29;45610;-87
2023/10/05 07:43:11;;;;;;;2.35;1.83;;;21.40;47.20;;;;;;4857007;29;44970;-86
2023/10/05 07:45:45;;;;;;;2.40;1.60;;;21.50;47.30;;;;;;4859208;29;45139;-86
2023/10/05 07:48:11;;;;;;;2.20;1.83;;;21.40;47.30;;;;;;4859052;29;46637;-87
2023/10/05 07:50:37;;;;;;;2.27;1.73;;;21.40;47.20;;;;;;4848655;29;45506;-86
2023/10/05 07:53:04;;;;;;;3.42;1.67;;;21.40;47.20;;;;;;4839134;29;45658;-85
2023/10/05 07:55:31;;;;;;;2.45;1.70;;;21.40;47.20;;;;;;4855713;29;44851;-85
2023/10/05 07:57:56;;;;;;;2.60;1.70;;;21.40;47.30;;;;;;4871670;29;47391;-86
2023/10/05 08:00:22;;;;;;;2.97;1.60;;;21.40;47.20;;;;;;4849730;29;45408;-86
2023/10/05 08:02:48;;;;;;;3.37;1.70;;;21.40;47.20;;;;;;4873677;29;45201;-86
2023/10/05 08:05:15;;;;;;;3.00;1.90;;;21.40;47.20;;;;;;4858147;29;44907;-88
2023/10/05 08:07:41;;;;;;;2.58;1.63;;;21.40;47.80;;;;;;4888100;29;46832;-85
2023/10/05 08:10:19;;;;;;;2.70;1.63;;;21.40;47.20;;;;;;4870841;29;44964;-86
2023/10/05 08:12:46;;;;;;;2.73;1.80;;;21.40;47.30;;;;;;4868203;29;45574;-87
2023/10/05 08:15:14;;;;;;;2.47;1.88;;;21.40;47.30;;;;;;4869731;29;45889;-85
2023/10/05 08:17:40;;;;;;;3.63;1.70;;;21.40;47.30;;;;;;4883733;29;46220;-86
2023/10/05 08:20:06;;;;;;;2.88;1.67;;;21.40;47.30;;;;;;4870253;29;45218;-86
2023/10/05 08:22:35;;;;;;;4.20;2.03;;;21.40;47.30;;;;;;4845272;29;44965;-85
2023/10/05 08:25:09;;;;;;;3.15;1.80;;;21.40;47.30;;;;;;4856850;29;45206;-86
2023/10/05 08:27:37;;;;;;;2.88;1.77;;;21.40;47.30;;;;;;4859714;29;47382;-86
2023/10/05 08:30:12;;;;;;;3.55;2.05;;;21.40;47.30;;;;;;4877357;29;45321;-89
2023/10/05 08:32:39;;;;;;;2.85;1.88;;;21.40;47.30;;;;;;4855967;29;45244;-88
2023/10/05 08:35:13;;;;;;;2.92;1.90;;;21.40;47.30;;;;;;4882612;29;45284;-90
2023/10/05 08:37:47;;;;;;;3.30;1.95;;;21.40;47.30;;;;;;4881785;29;46848;-86
2023/10/05 08:43:25;;;;;;;2.50;1.70;;;21.40;47.40;;;;;;4886328;29;45251;-86
2023/10/05 08:45:51;;;;;;;2.63;1.93;;;21.40;47.40;;;;;;4881319;29;45293;-86
2023/10/05 08:48:34;;;;;;;3.10;2.00;;;21.40;47.40;;;;;;4871261;29;45946;-86
2023/10/05 08:51:09;;;;;;;3.20;1.80;;;21.40;47.40;;;;;;4865479;28;45541;-86
2023/10/05 08:53:41;;;;;;;3.92;2.08;;;21.40;47.40;;;;;;4885090;29;45089;-84
2023/10/05 08:56:13;;;;;;;3.30;2.05;;;21.40;47.40;;;;;;4879949;29;45110;-86
2023/10/05 08:58:45;;;;;;;3.38;1.73;;;21.40;47.40;;;;;;4872016;29;46493;-86
2023/10/05 09:01:35;;;;;;;3.23;2.03;;;21.40;47.40;;;;;;4884154;28;45477;-86
2023/10/05 09:07:08;;;;;;;3.38;2.13;;;21.40;47.40;;;;;;4837549;29;45158;-86
2023/10/05 09:09:39;;;;;;;3.78;2.15;;;21.40;47.40;;;;;;4852503;29;45362;-85
2023/10/05 09:12:46;;;;;;;3.70;2.10;;;21.40;47.40;;;;;;4846496;29;44713;-87
2023/10/05 09:20:38;;;;;;;2.90;1.95;;;21.40;47.50;;;;;;4860429;29;45433;-86
2023/10/05 09:23:09;;;;;;;2.73;2.00;;;21.40;47.50;;;;;;4832984;29;45085;-86
2023/10/05 09:25:42;;;;;;;3.33;2.05;;;21.40;47.50;;;;;;4842179;29;45270;-86
2023/10/05 09:28:19;;;;;;;3.80;2.03;;;21.40;47.50;;;;;;4829470;29;45245;-85
2023/10/05 09:30:51;;;;;;;3.23;2.13;;;21.40;47.50;;;;;;4837796;29;46608;-86
2023/10/05 09:33:19;;;;;;;3.95;2.13;;;21.40;47.50;;;;;;4849498;29;45162;-89
2023/10/05 09:35:46;;;;;;;3.58;2.00;;;21.40;47.50;;;;;;4859247;29;45279;-88
2023/10/05 09:38:17;;;;;;;3.45;2.13;;;21.40;47.50;;;;;;4841434;29;45505;-88
2023/10/05 09:40:47;;;;;;;4.80;2.20;;;21.40;47.50;;;;;;4843281;29;45008;-86
2023/10/05 09:43:14;;;;;;;3.78;2.20;;;21.40;47.50;;;;;;4848900;29;45350;-86
2023/10/05 09:45:43;;;;;;;3.50;2.05;;;21.40;47.50;;;;;;4839733;29;45268;-88
2023/10/05 09:48:09;;;;;;;4.22;2.55;;;21.40;47.50;;;;;;4849148;29;45461;-86
2023/10/05 09:50:35;;;;;;;4.40;2.22;;;21.40;47.50;;;;;;4814649;29;47068;-86
2023/10/05 09:53:06;;;;;;;4.25;2.33;;;21.40;47.50;;;;;;4849714;29;45045;-87
2023/10/05 09:55:33;;;;;;;3.30;2.10;;;21.40;47.60;;;;;;4824950;29;45092;-85
2023/10/05 09:58:05;;;;;;;2.88;2.03;;;21.40;47.50;;;;;;4866005;29;44801;-85
2023/10/05 10:03:04;;;;;;;3.67;2.30;;;21.40;47.60;;;;;;4831692;29;44665;-85
2023/10/05 10:05:44;;;;;;;3.55;2.20;;;21.40;47.60;;;;;;4810730;29;45389;-86
2023/10/05 10:08:23;;;;;;;4.60;2.58;;;21.40;47.60;;;;;;4865325;29;45708;-86
2023/10/05 10:11:03;;;;;;;4.40;2.47;;;21.40;47.60;;;;;;4861892;29;46373;-86
2023/10/05 10:13:37;;;;;;;3.67;2.45;;;21.40;47.60;;;;;;4855189;29;45479;-86
2023/10/05 10:16:23;;;;;;;4.20;2.57;;;21.40;47.60;;;;;;4847738;29;45788;-86
2023/10/05 10:19:08;;;;;;;3.47;2.07;;;21.40;47.60;;;;;;4841778;29;45402;-86
2023/10/05 10:21:42;;;;;;;4.90;2.42;;;21.40;47.60;;;;;;4852663;29;45401;-86
2023/10/05 10:24:11;;;;;;;4.00;2.42;;;21.40;47.60;;;;;;4844564;29;45336;-86
2023/10/05 10:27:18;;;;;;;5.05;2.60;;;21.40;47.60;;;;;;4852649;29;45578;-85
2023/10/05 10:29:55;;;;;;;4.57;2.60;;;21.40;47.60;;;;;;4852405;29;45000;-85
2023/10/05 10:32:31;;;;;;;4.00;2.63;;;21.40;47.70;;;;;;4832713;29;47667;-85
2023/10/05 10:35:05;;;;;;;4.50;2.60;;;21.40;47.70;;;;;;4857117;29;45128;-85
2023/10/05 10:37:44;;;;;;;4.72;2.50;;;21.40;47.70;;;;;;4834252;29;44740;-86
2023/10/05 10:40:25;;;;;;;5.07;2.70;;;21.40;47.70;;;;;;4848487;29;44936;-87
2023/10/05 10:45:32;;;;;;;4.43;2.53;;;21.40;47.70;;;;;;4849690;29;44695;-87
2023/10/05 10:47:58;;;;;;;4.72;2.67;;;21.40;47.70;;;;;;4854772;29;45360;-87
2023/10/05 10:50:29;;;;;;;4.47;2.67;;;21.40;47.70;;;;;;4826192;29;45348;-87
2023/10/05 10:52:55;;;;;;;4.70;2.58;;;21.40;47.70;;;;;;4853840;29;47097;-87
2023/10/05 10:55:22;;;;;;;4.07;2.70;;;21.40;47.70;;;;;;4854045;29;45229;-88
2023/10/05 10:57:49;;;;;;;4.22;2.60;;;21.40;47.70;;;;;;4825363;29;45418;-87
2023/10/05 11:03:10;;;;;;;4.30;2.63;;;21.40;47.70;;;;;;4868659;29;46420;-87
2023/10/05 11:05:40;;;;;;;4.60;3.10;;;21.40;47.80;;;;;;4849101;29;44791;-87
2023/10/05 11:08:31;;;;;;;4.93;2.83;;;21.40;47.80;;;;;;4856158;29;45530;-87
2023/10/05 11:11:19;;;;;;;5.95;2.80;;;21.40;47.70;;;;;;4833262;29;45136;-87
2023/10/05 11:14:21;;;;;;;3.92;2.58;;;21.40;47.80;;;;;;4857506;29;46456;-88
2023/10/05 11:16:34;;;;;;;4.10;2.63;;;21.40;47.80;;;;;;4833692;29;45303;-87
2023/10/05 11:19:03;;;;;;;4.60;2.80;;;21.40;47.80;;;;;;4823604;29;45395;-87
2023/10/05 11:21:35;;;;;;;5.05;2.80;;;21.50;47.90;;;;;;4849002;29;45331;-87
2023/10/05 11:24:08;;;;;;;4.28;2.70;;;21.40;47.80;;;;;;4825919;29;46529;-89
2023/10/05 11:26:35;;;;;;;5.63;2.95;;;21.40;47.80;;;;;;4862860;29;44861;-87
2023/10/05 11:29:07;;;;;;;5.10;2.90;;;21.50;47.90;;;;;;4838181;29;45428;-87
2023/10/05 11:31:34;;;;;;;4.80;2.78;;;21.40;47.80;;;;;;4830703;29;44763;-87
2023/10/05 11:34:09;;;;;;;4.40;2.70;;;21.50;47.90;;;;;;4837150;29;45431;-87
2023/10/05 11:36:39;;;;;;;4.00;2.65;;;21.50;47.90;;;;;;4832559;29;45655;-87
2023/10/05 11:39:06;;;;;;;5.13;2.67;;;21.50;47.90;;;;;;4836119;29;46194;-89
2023/10/05 11:41:33;;;;;;;4.00;2.60;;;21.40;47.80;;;;;;4848072;29;44953;-87
2023/10/05 11:43:59;;;;;;;4.35;2.78;;;21.50;47.90;;;;;;4853346;29;45478;-87
2023/10/05 11:46:46;;;;;;;5.37;3.10;;;21.40;47.80;;;;;;4836429;29;45414;-87
2023/10/05 11:49:13;;;;;;;3.85;2.60;;;21.50;47.90;;;;;;4848729;29;44840;-87
2023/10/05 11:51:41;;;;;;;4.85;2.78;;;21.50;47.90;;;;;;4847337;29;45122;-91
2023/10/05 11:54:09;;;;;;;4.57;3.08;;;21.50;47.90;;;;;;4859205;29;46233;-87
2023/10/05 11:56:35;;;;;;;4.28;2.60;;;21.50;47.90;;;;;;4836338;29;45172;-87
2023/10/05 11:59:01;;;;;;;4.43;2.80;;;21.50;47.90;;;;;;4845835;29;44758;-87
2023/10/05 12:01:32;;;;;;;4.60;2.83;;;21.40;47.90;;;;;;4829744;29;45050;-87
2023/10/05 12:03:58;;;;;;;3.95;2.38;;;21.50;48.00;;;;;;4855981;29;46298;-87
2023/10/05 12:06:25;;;;;;;4.10;2.73;;;21.50;47.90;;;;;;4859165;29;44856;-87
2023/10/05 12:08:53;;;;;;;4.50;2.85;;;21.50;47.90;;;;;;4845179;29;44637;-88
2023/10/05 12:11:23;;;;;;;4.00;2.67;;;21.40;47.90;;;;;;4846480;29;44791;-87
2023/10/05 12:13:56;;;;;;;4.90;2.80;;;21.50;48.00;;;;;;4867120;29;47428;-87
2023/10/05 12:16:27;;;;;;;4.68;2.70;;;21.50;48.00;;;;;;4864820;29;45398;-87
2023/10/05 12:18:54;;;;;;;3.60;2.50;;;21.50;48.00;;;;;;4855713;29;45345;-87
2023/10/05 12:21:23;;;;;;;4.32;2.63;;;21.50;48.00;;;;;;4841670;29;45135;-85
2023/10/05 12:23:49;;;;;;;3.93;2.53;;;21.50;48.00;;;;;;4838825;29;46174;-85
2023/10/05 12:26:15;;;;;;;3.75;2.55;;;21.50;48.00;;;;;;4839277;29;45248;-85
2023/10/05 12:28:44;;;;;;;4.37;2.70;;;21.50;48.00;;;;;;4844989;29;45247;-85
2023/10/05 12:31:09;;;;;;;3.95;2.55;;;21.40;47.90;;;;;;4833881;29;45220;-85
2023/10/05 12:33:58;;;;;;;5.13;2.95;;;21.50;48.00;;;;;;4837510;29;48440;-85
2023/10/05 12:36:24;;;;;;;3.88;2.40;;;21.50;48.00;;;;;;4854646;29;45511;-85
2023/10/05 12:38:49;;;;;;;4.15;2.60;;;21.50;48.00;;;;;;4858167;29;45282;-85
2023/10/05 12:41:17;;;;;;;3.75;2.40;;;21.50;48.00;;;;;;4853449;29;45333;-85
2023/10/05 12:43:43;;;;;;;3.70;2.53;;;21.50;48.00;;;;;;4852937;29;46459;-85
2023/10/05 12:46:10;;;;;;;4.50;2.50;;;21.40;48.00;;;;;;4842818;29;45606;-85
2023/10/05 12:49:07;;;;;;;4.40;2.50;;;21.50;48.10;;;;;;4841061;29;45262;-85
2023/10/05 12:51:39;;;;;;;3.30;2.50;;;21.50;48.00;;;;;;4862096;29;45389;-87
2023/10/05 12:54:09;;;;;;;3.87;2.60;;;21.50;48.10;;;;;;4843086;29;47024;-87
2023/10/05 12:56:55;;;;;;;4.25;2.30;;;21.50;48.10;;;;;;4832127;29;45249;-88
2023/10/05 12:59:21;;;;;;;5.35;2.70;;;21.50;48.10;;;;;;4853652;29;45502;-87
2023/10/05 13:01:46;;;;;;;3.23;2.40;;;21.40;48.00;;;;;;4833534;29;45874;-89
2023/10/05 13:04:13;;;;;;;3.90;2.60;;;21.40;48.00;;;;;;4847730;29;45848;-89
2023/10/05 13:06:39;;;;;;;4.95;2.53;;;21.50;48.10;;;;;;4841413;29;45170;-89
2023/10/05 13:09:11;;;;;;;3.88;2.28;;;21.50;48.10;;;;;;4843525;29;44718;-87
2023/10/05 13:11:41;;;;;;;4.70;2.60;;;21.50;48.10;;;;;;4845851;29;45235;-87
2023/10/05 13:14:08;;;;;;;3.83;2.67;;;21.40;48.00;;;;;;4838191;29;46845;-89
2023/10/05 13:16:38;;;;;;;3.70;2.47;;;21.50;48.10;;;;;;4837480;29;44995;-87
2023/10/05 13:19:09;;;;;;;4.25;2.42;;;21.50;48.10;;;;;;4858327;29;45137;-88
2023/10/05 13:21:36;;;;;;;4.15;2.50;;;21.50;48.10;;;;;;4836861;29;45207;-87
2023/10/05 13:24:02;;;;;;;3.30;2.30;;;21.50;48.10;;;;;;4854865;29;46202;-87
2023/10/05 13:26:29;;;;;;;3.97;2.40;;;21.50;48.10;;;;;;4857860;29;45314;-87
2023/10/05 13:28:59;;;;;;;3.35;2.50;;;21.40;48.00;;;;;;4836368;29;45086;-87
2023/10/05 13:31:25;;;;;;;4.73;2.80;;;21.40;48.00;;;;;;4849748;29;45223;-87
2023/10/05 13:33:54;;;;;;;3.92;2.40;;;21.50;48.10;;;;;;4872601;29;47304;-88
2023/10/05 13:36:21;;;;;;;3.78;2.45;;;21.50;48.10;;;;;;4847964;29;44888;-88
2023/10/05 13:38:47;;;;;;;3.85;2.22;;;21.40;48.10;;;;;;4863565;29;45469;-87
2023/10/05 13:41:13;;;;;;;4.10;2.33;;;21.50;48.10;;;;;;4852049;29;45504;-88
2023/10/05 13:43:39;;;;;;;3.92;2.60;;;21.40;48.10;;;;;;4842066;29;45367;-87
2023/10/05 13:46:22;;;;;;;3.40;2.28;;;21.40;48.10;;;;;;4853222;29;45410;-87
2023/10/05 13:48:48;;;;;;;4.85;2.40;;;21.40;48.10;;;;;;4857263;29;45425;-87
2023/10/05 13:51:18;;;;;;;3.58;2.20;;;21.40;48.10;;;;;;4860217;29;45103;-87
2023/10/05 13:53:46;;;;;;;3.60;2.17;;;21.50;48.20;;;;;;4852019;29;46558;-88
2023/10/05 13:56:12;;;;;;;3.07;2.37;;;21.40;48.10;;;;;;4854212;29;45265;-87
2023/10/05 13:58:41;;;;;;;3.70;2.30;;;21.40;48.20;;;;;;4874671;29;45515;-87
2023/10/05 14:01:10;;;;;;;4.80;2.60;;;21.40;48.10;;;;;;4831411;29;45587;-87
2023/10/05 14:03:36;;;;;;;3.47;2.00;;;21.40;48.10;;;;;;4854108;29;45462;-87
2023/10/05 14:06:04;;;;;;;3.33;2.22;;;21.40;48.20;;;;;;4847208;29;45556;-87
2023/10/05 14:08:33;;;;;;;3.15;2.08;;;21.40;48.20;;;;;;4857670;29;45024;-88
2023/10/05 14:11:01;;;;;;;4.20;2.35;;;21.40;48.10;;;;;;4823345;29;45739;-87
2023/10/05 14:13:27;;;;;;;3.80;2.10;;;21.40;48.10;;;;;;4857275;29;45391;-88
2023/10/05 14:15:53;;;;;;;3.92;2.38;;;21.40;48.10;;;;;;4830348;29;45528;-87
2023/10/05 14:18:20;;;;;;;3.13;2.13;;;21.40;48.10;;;;;;4849011;29;45242;-85
2023/10/05 14:20:49;;;;;;;3.08;2.20;;;21.40;48.20;;;;;;4866045;29;45389;-85
2023/10/05 14:23:15;;;;;;;3.78;2.20;;;21.40;48.10;;;;;;4867095;29;45451;-86
2023/10/05 14:25:43;;;;;;;3.10;2.17;;;21.40;48.20;;;;;;4838985;29;45260;-85
2023/10/05 14:28:09;;;;;;;3.47;2.00;;;21.40;48.20;;;;;;4858867;29;45398;-84
2023/10/05 14:30:38;;;;;;;4.53;2.40;;;21.40;48.20;;;;;;4838225;29;45187;-84
2023/10/05 14:33:05;;;;;;;3.63;2.00;;;21.40;48.20;;;;;;4853386;29;45495;-84
2023/10/05 14:35:31;;;;;;;3.78;1.98;;;21.40;48.20;;;;;;4846691;29;45534;-85
2023/10/05 14:37:58;;;;;;;3.30;2.25;;;21.40;48.20;;;;;;4865886;29;45971;-84
2023/10/05 14:40:26;;;;;;;3.25;2.17;;;21.40;48.20;;;;;;4837884;29;45244;-85
2023/10/05 14:42:53;;;;;;;3.40;2.10;;;21.40;48.20;;;;;;4854490;29;47340;-84
2023/10/05 14:45:21;;;;;;;3.60;2.17;;;21.40;48.20;;;;;;4852158;29;45154;-84
2023/10/05 14:47:57;;;;;;;3.75;2.28;;;21.40;48.20;;;;;;4834836;29;46455;-84
2023/10/05 14:50:26;;;;;;;3.10;2.00;;;21.40;48.20;;;;;;4854804;29;45248;-84
2023/10/05 14:52:53;;;;;;;3.25;2.00;;;21.40;48.20;;;;;;4839807;29;45860;-85
2023/10/05 14:55:20;;;;;;;3.00;1.90;;;21.40;48.30;;;;;;4851968;29;45181;-88
2023/10/05 14:57:47;;;;;;;3.55;2.42;;;21.40;48.20;;;;;;4872246;29;44723;-85
2023/10/05 15:00:17;;;;;;;2.42;1.70;;;21.40;48.30;;;;;;4857004;29;44904;-89
2023/10/05 15:02:43;;;;;;;3.70;1.95;;;21.40;48.30;;;;;;4845509;29;46414;-85
2023/10/05 15:05:15;;;;;;;3.63;2.13;;;21.40;48.30;;;;;;4850571;29;44989;-88
2023/10/05 15:07:41;;;;;;;3.17;2.08;;;21.40;48.30;;;;;;4856797;29;44820;-85
2023/10/05 15:10:16;;;;;;;2.83;2.07;;;21.40;48.30;;;;;;4872418;29;45266;-88
2023/10/05 15:12:45;;;;;;;3.60;1.92;;;21.40;48.30;;;;;;4881182;29;45461;-85
2023/10/05 15:15:15;;;;;;;3.00;2.00;;;21.40;48.30;;;;;;4862145;29;44775;-85
2023/10/05 15:17:43;;;;;;;3.97;2.20;;;21.40;48.30;;;;;;4867244;29;45132;-84
2023/10/05 15:20:11;;;;;;;3.40;2.00;;;21.40;48.30;;;;;;4875592;29;45372;-84
2023/10/05 15:22:38;;;;;;;3.40;2.28;;;21.40;48.30;;;;;;4867823;29;45595;-84
2023/10/05 15:25:08;;;;;;;3.27;2.10;;;21.40;48.30;;;;;;4867316;29;44733;-86
2023/10/05 15:27:37;;;;;;;3.80;1.83;;;21.40;48.30;;;;;;4879743;29;46093;-84
2023/10/05 15:30:10;;;;;;;4.13;2.00;;;21.40;48.30;;;;;;4855188;29;45315;-87
2023/10/05 15:32:40;;;;;;;3.58;2.10;;;21.40;48.30;;;;;;4854637;29;45710;-85
2023/10/05 15:35:10;;;;;;;2.40;1.70;;;21.40;48.30;;;;;;4867541;29;44982;-85
2023/10/05 15:37:37;;;;;;;3.00;1.95;;;21.40;48.30;;;;;;4864457;29;45617;-85
2023/10/05 15:40:12;;;;;;;3.08;2.05;;;21.40;48.30;;;;;;4849971;29;45240;-87
2023/10/05 15:42:44;;;;;;;4.20;2.40;;;21.40;48.30;;;;;;4835364;29;46407;-84
2023/10/05 15:45:13;;;;;;;3.17;2.10;;;21.40;48.30;;;;;;4848471;29;45118;-84
2023/10/05 15:47:43;;;;;;;3.53;2.00;;;21.40;48.30;;;;;;4863349;29;45154;-84
2023/10/05 15:50:13;;;;;;;2.97;1.90;;;21.40;48.40;;;;;;4862323;29;45224;-88
2023/10/05 15:52:43;;;;;;;3.30;2.10;;;21.40;48.40;;;;;;4861904;29;46449;-84
2023/10/05 15:55:15;;;;;;;3.53;2.15;;;21.40;48.40;;;;;;4862430;29;45321;-87
2023/10/05 15:57:47;;;;;;;3.72;2.10;;;21.40;48.40;;;;;;4880826;29;44897;-84
2023/10/05 16:00:17;;;;;;;3.50;1.90;;;21.40;48.30;;;;;;4862455;29;45230;-84
2023/10/05 16:02:47;;;;;;;2.92;2.00;;;21.40;48.40;;;;;;4862801;29;45491;-84
2023/10/05 16:05:14;;;;;;;3.30;2.25;;;21.40;48.40;;;;;;4853257;29;45215;-85
2023/10/05 16:07:41;;;;;;;3.38;1.90;;;21.40;48.40;;;;;;4830619;29;45439;-84
2023/10/05 16:10:09;;;;;;;3.53;2.00;;;21.40;48.40;;;;;;4850988;29;45281;-85
2023/10/05 16:12:36;;;;;;;3.00;2.17;;;21.40;48.40;;;;;;4833388;29;46403;-84
2023/10/05 16:15:09;;;;;;;3.42;2.10;;;21.40;48.40;;;;;;4865093;29;44930;-88
2023/10/05 16:17:36;;;;;;;2.50;1.80;;;21.40;48.40;;;;;;4837197;29;45360;-84
2023/10/05 16:20:08;;;;;;;2.92;1.88;;;21.40;48.40;;;;;;4878116;29;45414;-88
2023/10/05 16:22:37;;;;;;;3.92;2.28;;;21.40;48.40;;;;;;4856394;29;45589;-84
2023/10/05 16:25:10;;;;;;;3.22;2.10;;;21.40;48.40;;;;;;4870382;29;45451;-88